Time;durP1;ratioP1;P1;durP2;ratioP2;P2;SDS_P1;SDS_P2;PMS_P1;PMS_P2;Temp;Humidity;BMP_temperature;BMP_pressure;BME280_temperature;BME280_humidity;BME280_pressure;Samples;Min_cycle;Max_cycle;Signal;HPM_P1;HPM_P2
2021/12/23 00:00:40;;;;;;;6.30;3.38;;;1.20;99.90;;;;;;5076631;28;20027;-65
2021/12/23 00:03:06;;;;;;;12.50;2.40;;;1.30;99.90;;;;;;5084244;28;20034;-65
2021/12/23 00:05:31;;;;;;;6.75;2.45;;;1.40;99.90;;;;;;5078632;28;20531;-65
2021/12/23 00:07:58;;;;;;;5.70;2.72;;;1.30;99.90;;;;;;5080029;28;20101;-65
2021/12/23 00:10:24;;;;;;;8.35;2.83;;;1.30;99.90;;;;;;5079624;28;20027;-65
2021/12/23 00:12:49;;;;;;;7.93;3.50;;;1.30;99.90;;;;;;5074421;28;20029;-65
2021/12/23 00:15:29;;;;;;;8.15;2.90;;;1.20;99.90;;;;;;5081331;28;20077;-65
2021/12/23 00:18:05;;;;;;;6.57;2.93;;;1.20;99.90;;;;;;5076226;28;20488;-65
2021/12/23 00:25:49;;;;;;;3.65;2.10;;;1.30;99.90;;;;;;5077935;28;20031;-65
2021/12/23 00:28:14;;;;;;;8.10;3.15;;;1.30;99.90;;;;;;5076437;28;20507;-65
2021/12/23 00:30:40;;;;;;;3.00;2.05;;;1.30;99.90;;;;;;5076598;28;20067;-65
2021/12/23 00:33:06;;;;;;;5.70;3.03;;;1.40;99.90;;;;;;5070541;28;20017;-65
2021/12/23 00:35:31;;;;;;;2.75;1.83;;;1.40;99.90;;;;;;5076091;28;20063;-65
2021/12/23 00:38:02;;;;;;;4.13;2.67;;;1.40;99.90;;;;;;5072923;28;20030;-65
2021/12/23 00:40:28;;;;;;;7.20;3.17;;;1.40;99.90;;;;;;5074113;28;20066;-65
2021/12/23 00:42:53;;;;;;;8.15;3.17;;;1.40;99.90;;;;;;5077191;28;20043;-66
2021/12/23 00:45:20;;;;;;;7.97;3.78;;;1.40;99.90;;;;;;5072966;28;20021;-65
2021/12/23 00:47:46;;;;;;;8.13;3.00;;;1.50;99.90;;;;;;5073014;28;20388;-65
2021/12/23 00:50:12;;;;;;;4.60;2.75;;;1.50;99.90;;;;;;5068058;28;20024;-65
2021/12/23 00:52:39;;;;;;;13.52;3.45;;;1.50;99.90;;;;;;5069082;28;20016;-65
2021/12/23 00:55:07;;;;;;;5.43;2.47;;;1.60;99.90;;;;;;5067904;28;20066;-65
2021/12/23 00:57:38;;;;;;;11.50;3.25;;;1.60;99.90;;;;;;5079344;28;20066;-65
2021/12/23 01:00:07;;;;;;;4.57;1.90;;;1.70;99.90;;;;;;5080780;28;20464;-65
2021/12/23 01:02:33;;;;;;;3.83;2.22;;;1.80;99.90;;;;;;5077096;28;20028;-65
2021/12/23 01:04:59;;;;;;;4.90;1.95;;;1.80;99.90;;;;;;5069254;28;20028;-65
2021/12/23 01:07:25;;;;;;;4.47;2.47;;;1.80;99.90;;;;;;5083014;28;20259;-65
2021/12/23 01:09:51;;;;;;;4.78;2.10;;;1.80;99.90;;;;;;5074141;28;20031;-65
2021/12/23 01:12:21;;;;;;;5.25;2.47;;;1.80;99.90;;;;;;5070547;28;20016;-65
2021/12/23 01:14:59;;;;;;;2.38;1.50;;;1.70;99.90;;;;;;5068399;28;20044;-65
2021/12/23 01:19:54;;;;;;;7.35;3.08;;;1.80;99.90;;;;;;5079871;28;20063;-65
2021/12/23 01:22:20;;;;;;;7.43;3.47;;;1.90;99.90;;;;;;5084798;28;20112;-66
2021/12/23 01:24:47;;;;;;;4.15;2.08;;;1.90;99.90;;;;;;5070952;28;20029;-66
2021/12/23 01:27:13;;;;;;;6.30;2.75;;;1.90;99.90;;;;;;5071085;28;20035;-65
2021/12/23 01:29:38;;;;;;;6.47;2.72;;;2.00;99.90;;;;;;5080682;28;20020;-65
2021/12/23 01:32:06;;;;;;;10.27;4.07;;;2.00;99.90;;;;;;5079158;28;20017;-65
2021/12/23 01:34:33;;;;;;;5.07;1.42;;;1.90;99.90;;;;;;5080062;28;20075;-66
2021/12/23 01:37:00;;;;;;;9.20;3.60;;;1.90;99.90;;;;;;5078778;28;20074;-66
2021/12/23 01:39:25;;;;;;;4.50;2.42;;;1.90;99.90;;;;;;5074947;28;20067;-65
2021/12/23 01:41:51;;;;;;;4.85;2.47;;;1.80;99.90;;;;;;5081919;28;20483;-65
2021/12/23 01:44:17;;;;;;;6.25;2.63;;;1.80;99.90;;;;;;5079433;28;20078;-65
2021/12/23 01:46:42;;;;;;;9.27;3.65;;;1.80;99.90;;;;;;5075822;28;20158;-65
2021/12/23 01:49:08;;;;;;;5.47;2.50;;;1.80;99.90;;;;;;5073516;28;20481;-65
2021/12/23 01:51:34;;;;;;;3.92;2.20;;;1.80;99.90;;;;;;5081934;28;20082;-66
2021/12/23 01:53:59;;;;;;;3.30;2.05;;;1.70;99.90;;;;;;5077207;28;20031;-65
2021/12/23 01:56:25;;;;;;;7.35;2.88;;;1.70;99.90;;;;;;5080015;28;20151;-65
2021/12/23 01:58:52;;;;;;;9.15;3.20;;;1.70;99.90;;;;;;5072052;28;20411;-65
2021/12/23 02:01:17;;;;;;;8.73;2.97;;;1.70;99.90;;;;;;5078054;28;20047;-65
2021/12/23 02:03:43;;;;;;;6.90;3.80;;;1.70;99.90;;;;;;5079988;28;20472;-65
2021/12/23 02:06:09;;;;;;;9.13;3.75;;;1.70;99.90;;;;;;5065662;28;20035;-65
2021/12/23 02:08:36;;;;;;;6.53;3.30;;;1.70;99.90;;;;;;5089014;28;20530;-65
2021/12/23 02:11:05;;;;;;;8.20;3.47;;;1.70;99.90;;;;;;5073025;28;20031;-65
2021/12/23 02:13:33;;;;;;;3.50;1.85;;;1.70;99.90;;;;;;5070926;28;20074;-65
2021/12/23 02:15:59;;;;;;;7.70;2.70;;;1.70;99.90;;;;;;5071853;28;20423;-65
2021/12/23 02:18:25;;;;;;;7.43;2.55;;;1.60;99.90;;;;;;5069763;28;20028;-65
2021/12/23 02:20:51;;;;;;;5.07;3.28;;;1.60;99.90;;;;;;5071946;28;20109;-65
2021/12/23 02:23:17;;;;;;;4.40;2.60;;;1.60;99.90;;;;;;5074717;28;20473;-65
2021/12/23 02:25:43;;;;;;;6.63;3.20;;;1.60;99.90;;;;;;5078834;28;20074;-65
2021/12/23 02:28:08;;;;;;;8.63;3.42;;;1.60;99.90;;;;;;5073415;28;20032;-65
2021/12/23 02:30:39;;;;;;;6.28;3.45;;;1.60;99.90;;;;;;5078798;28;20097;-65
2021/12/23 02:33:07;;;;;;;5.32;2.65;;;1.60;99.90;;;;;;5074252;28;20031;-65
2021/12/23 02:35:33;;;;;;;11.18;4.93;;;1.60;99.90;;;;;;5083260;28;20056;-65
2021/12/23 02:37:58;;;;;;;5.80;3.25;;;1.50;99.90;;;;;;5071434;28;20020;-65
2021/12/23 02:40:25;;;;;;;6.63;2.97;;;1.50;99.90;;;;;;5077391;28;20031;-65
2021/12/23 02:42:51;;;;;;;6.40;3.00;;;1.50;99.90;;;;;;5080852;28;20081;-65
2021/12/23 02:45:17;;;;;;;11.20;3.55;;;1.50;99.90;;;;;;5075501;28;20471;-66
2021/12/23 02:47:42;;;;;;;9.70;3.58;;;1.50;99.90;;;;;;5075753;28;20074;-65
2021/12/23 02:50:08;;;;;;;5.45;2.15;;;1.50;99.90;;;;;;5072075;28;20032;-65
2021/12/23 02:52:36;;;;;;;8.32;3.72;;;1.50;99.90;;;;;;5073852;28;20020;-65
2021/12/23 02:55:03;;;;;;;6.35;2.67;;;1.50;99.90;;;;;;5069439;28;20040;-65
2021/12/23 02:57:33;;;;;;;7.85;2.97;;;1.50;99.90;;;;;;5077158;28;20028;-65
2021/12/23 03:00:00;;;;;;;10.55;3.17;;;1.50;99.90;;;;;;5079185;28;20024;-65
2021/12/23 03:02:26;;;;;;;8.25;4.20;;;1.40;99.90;;;;;;5070941;28;20107;-65
2021/12/23 03:04:51;;;;;;;12.57;2.78;;;1.40;99.90;;;;;;5072837;28;20112;-65
2021/12/23 03:07:17;;;;;;;8.43;4.47;;;1.40;99.90;;;;;;5087738;28;20433;-65
2021/12/23 03:09:47;;;;;;;8.77;3.85;;;1.50;99.90;;;;;;5074851;28;20472;-65
2021/12/23 03:12:12;;;;;;;9.65;3.30;;;1.50;99.90;;;;;;5073492;28;20036;-65
2021/12/23 03:14:38;;;;;;;3.92;2.45;;;1.50;99.90;;;;;;5076588;28;20040;-65
2021/12/23 03:17:04;;;;;;;6.78;3.55;;;1.50;99.90;;;;;;5074713;28;20028;-65
2021/12/23 03:19:31;;;;;;;7.05;2.83;;;1.60;99.90;;;;;;5077007;28;20036;-65
2021/12/23 03:21:56;;;;;;;8.65;3.47;;;1.60;99.90;;;;;;5081112;28;20376;-65
2021/12/23 03:24:22;;;;;;;17.00;4.80;;;1.60;99.90;;;;;;5078827;28;20012;-65
2021/12/23 03:26:47;;;;;;;6.07;3.17;;;1.60;99.90;;;;;;5075567;28;20096;-65
2021/12/23 03:29:14;;;;;;;8.45;3.20;;;1.60;99.90;;;;;;5072601;28;20081;-65
2021/12/23 03:31:40;;;;;;;6.65;3.25;;;1.70;99.90;;;;;;5079053;28;20031;-65
2021/12/23 03:34:05;;;;;;;11.43;4.25;;;1.70;99.90;;;;;;5078585;28;20472;-65
2021/12/23 03:36:31;;;;;;;8.70;3.67;;;1.80;99.90;;;;;;5077114;28;20073;-65
2021/12/23 03:38:57;;;;;;;9.40;3.75;;;1.80;99.90;;;;;;5070899;28;20147;-65
2021/12/23 03:41:22;;;;;;;9.88;4.50;;;1.80;99.90;;;;;;5081316;28;20016;-65
2021/12/23 03:43:48;;;;;;;11.43;3.25;;;1.80;99.90;;;;;;5070781;28;20130;-65
2021/12/23 03:46:14;;;;;;;8.82;4.13;;;1.80;99.90;;;;;;5076052;28;20082;-65
2021/12/23 03:48:39;;;;;;;7.88;3.35;;;1.80;99.90;;;;;;5070593;28;20036;-65
2021/12/23 03:51:05;;;;;;;5.72;2.38;;;1.90;99.90;;;;;;5069889;28;20573;-65
2021/12/23 03:53:30;;;;;;;7.68;3.03;;;1.90;99.90;;;;;;5076331;28;20054;-65
2021/12/23 03:55:56;;;;;;;6.28;2.63;;;1.80;99.90;;;;;;5076080;28;20039;-65
2021/12/23 03:58:22;;;;;;;6.25;2.72;;;1.80;99.90;;;;;;5071819;28;20092;-65
2021/12/23 04:00:49;;;;;;;5.72;3.22;;;1.80;99.90;;;;;;5076334;28;20040;-65
2021/12/23 04:03:15;;;;;;;13.68;3.88;;;1.80;99.90;;;;;;5082123;28;20024;-65
2021/12/23 04:05:40;;;;;;;9.95;4.28;;;1.80;99.90;;;;;;5069848;28;20008;-65
2021/12/23 04:08:06;;;;;;;7.78;3.40;;;1.70;99.90;;;;;;5090765;28;20031;-65
2021/12/23 04:10:32;;;;;;;6.90;3.30;;;1.60;99.90;;;;;;5076268;28;20522;-65
2021/12/23 04:12:58;;;;;;;9.55;5.10;;;1.60;99.90;;;;;;5075948;28;20519;-65
2021/12/23 04:15:24;;;;;;;9.68;4.78;;;1.30;99.90;;;;;;5076618;28;20029;-65
2021/12/23 04:17:50;;;;;;;10.30;4.68;;;1.20;99.90;;;;;;5068585;28;20032;-65
2021/12/23 04:20:21;;;;;;;15.95;4.28;;;1.10;99.90;;;;;;5068862;28;20059;-65
2021/12/23 04:22:52;;;;;;;9.27;3.88;;;0.80;99.90;;;;;;5077588;28;20031;-65
2021/12/23 04:25:21;;;;;;;12.38;3.67;;;0.50;99.90;;;;;;5071669;28;20456;-65
2021/12/23 04:27:48;;;;;;;6.38;2.88;;;0.40;99.90;;;;;;5072979;28;20384;-65
2021/12/23 04:30:15;;;;;;;7.00;3.05;;;0.20;99.90;;;;;;5075213;28;20063;-66
2021/12/23 04:32:41;;;;;;;9.45;3.50;;;0.10;99.90;;;;;;5078792;28;20288;-65
2021/12/23 04:35:08;;;;;;;11.90;4.65;;;0.00;99.90;;;;;;5078317;28;20029;-65
2021/12/23 04:37:33;;;;;;;7.90;3.22;;;-0.10;99.90;;;;;;5068936;28;20027;-65
2021/12/23 04:39:59;;;;;;;8.77;3.05;;;-0.20;99.90;;;;;;5072927;28;20033;-65
2021/12/23 04:42:25;;;;;;;8.95;4.72;;;-0.30;99.90;;;;;;5080468;28;20028;-65
2021/12/23 04:44:52;;;;;;;13.30;3.90;;;-0.40;99.90;;;;;;5077629;28;20024;-65
2021/12/23 04:47:18;;;;;;;8.35;3.15;;;-0.50;99.90;;;;;;5072732;28;20353;-65
2021/12/23 04:49:44;;;;;;;7.57;3.47;;;-0.60;99.90;;;;;;5080902;28;20035;-65
2021/12/23 04:52:09;;;;;;;11.15;4.40;;;-0.70;99.90;;;;;;5076444;28;20020;-65
2021/12/23 04:54:35;;;;;;;10.05;3.40;;;-0.70;99.90;;;;;;5070693;28;20016;-65
2021/12/23 04:57:00;;;;;;;8.55;2.45;;;-0.50;99.90;;;;;;5082325;28;20060;-65
2021/12/23 04:59:26;;;;;;;11.25;4.80;;;-0.40;99.90;;;;;;5075830;28;20024;-65
2021/12/23 05:01:52;;;;;;;8.18;3.03;;;-0.30;99.90;;;;;;5077628;28;20035;-65
2021/12/23 05:04:17;;;;;;;13.80;3.40;;;-0.20;99.90;;;;;;5073250;28;20056;-65
2021/12/23 05:06:43;;;;;;;10.57;4.28;;;-0.20;99.90;;;;;;5081452;28;20032;-65
2021/12/23 05:09:09;;;;;;;8.05;3.47;;;-0.20;99.90;;;;;;5081678;28;20029;-65
2021/12/23 05:11:34;;;;;;;9.85;3.78;;;-0.30;99.90;;;;;;5076972;28;20012;-65
2021/12/23 05:14:00;;;;;;;13.90;4.72;;;-0.20;99.90;;;;;;5071965;28;20043;-65
2021/12/23 05:16:25;;;;;;;5.25;3.40;;;0.00;99.90;;;;;;5075972;28;20024;-65
2021/12/23 05:18:51;;;;;;;7.93;4.20;;;0.20;99.90;;;;;;5078538;28;20542;-65
2021/12/23 05:21:17;;;;;;;5.60;2.75;;;0.40;99.90;;;;;;5080592;28;20088;-65
2021/12/23 05:23:42;;;;;;;4.95;3.28;;;0.50;99.90;;;;;;5072986;28;20471;-65
2021/12/23 05:26:08;;;;;;;4.60;2.47;;;0.60;99.90;;;;;;5068925;28;20388;-65
2021/12/23 05:28:35;;;;;;;8.30;3.08;;;0.70;99.90;;;;;;5073751;28;20035;-65
2021/12/23 05:31:01;;;;;;;10.75;4.22;;;0.70;99.90;;;;;;5080855;28;20070;-65
2021/12/23 05:33:27;;;;;;;4.15;2.65;;;0.90;99.90;;;;;;5073834;28;20404;-65
2021/12/23 05:35:53;;;;;;;3.70;2.25;;;1.00;99.90;;;;;;5078288;28;20019;-65
2021/12/23 05:38:18;;;;;;;3.67;2.50;;;1.10;99.90;;;;;;5072585;28;20132;-65
2021/12/23 05:40:44;;;;;;;5.03;3.13;;;1.10;99.90;;;;;;5074164;28;20095;-65
2021/12/23 05:43:10;;;;;;;5.93;3.10;;;1.10;99.90;;;;;;5070768;28;20028;-65
2021/12/23 05:45:35;;;;;;;8.35;2.80;;;1.10;99.90;;;;;;5072758;28;20021;-65
2021/12/23 05:48:01;;;;;;;6.90;3.50;;;1.00;99.90;;;;;;5067079;28;20412;-65
2021/12/23 05:50:27;;;;;;;5.68;2.85;;;1.10;99.90;;;;;;5067157;28;20055;-65
2021/12/23 05:52:53;;;;;;;13.50;5.35;;;1.00;99.90;;;;;;5067759;28;20437;-65
2021/12/23 05:55:20;;;;;;;11.07;3.88;;;1.10;99.90;;;;;;5070275;28;20063;-65
2021/12/23 05:57:46;;;;;;;7.18;2.05;;;1.20;99.90;;;;;;5072055;28;20150;-64
2021/12/23 06:00:32;;;;;;;14.60;5.03;;;1.20;99.90;;;;;;5076940;28;20548;-65
2021/12/23 06:02:59;;;;;;;14.85;2.28;;;1.20;99.90;;;;;;5092837;28;20039;-65
2021/12/23 06:05:25;;;;;;;5.07;2.83;;;1.30;99.90;;;;;;5077044;28;20082;-64
2021/12/23 06:07:51;;;;;;;17.20;6.15;;;1.30;99.90;;;;;;5084250;28;20119;-64
2021/12/23 06:10:17;;;;;;;10.05;5.20;;;1.30;99.90;;;;;;5078137;28;20025;-64
2021/12/23 06:12:44;;;;;;;5.72;3.13;;;1.30;99.90;;;;;;5080806;28;20496;-64
2021/12/23 06:15:10;;;;;;;8.90;4.32;;;1.30;99.90;;;;;;5081283;28;20024;-64
2021/12/23 06:17:37;;;;;;;4.25;2.63;;;1.30;99.90;;;;;;5081427;28;20025;-65
2021/12/23 06:20:05;;;;;;;9.82;4.10;;;1.40;99.90;;;;;;5080131;28;20047;-65
2021/12/23 06:22:34;;;;;;;4.43;2.92;;;1.30;99.90;;;;;;5080978;28;20358;-65
2021/12/23 06:25:00;;;;;;;8.50;4.18;;;1.30;99.90;;;;;;5079218;28;20024;-65
2021/12/23 06:27:25;;;;;;;4.97;2.92;;;1.30;99.90;;;;;;5076062;28;20552;-65
2021/12/23 06:29:51;;;;;;;5.10;2.28;;;1.30;99.90;;;;;;5079344;28;20423;-65
2021/12/23 06:32:16;;;;;;;6.25;2.88;;;1.30;99.90;;;;;;5076016;28;20029;-65
2021/12/23 06:34:42;;;;;;;9.43;4.38;;;1.30;99.90;;;;;;5074559;28;20024;-65
2021/12/23 06:37:08;;;;;;;14.80;4.00;;;1.20;99.90;;;;;;5077729;28;20487;-65
2021/12/23 06:39:35;;;;;;;8.18;3.97;;;1.20;99.90;;;;;;5080425;28;20472;-65
2021/12/23 06:42:02;;;;;;;10.40;3.80;;;1.20;99.90;;;;;;5085986;28;20077;-65
2021/12/23 06:44:28;;;;;;;6.88;3.08;;;1.30;99.90;;;;;;5078204;28;20366;-65
2021/12/23 06:46:54;;;;;;;10.68;4.10;;;1.40;99.90;;;;;;5081414;28;20031;-65
2021/12/23 06:49:19;;;;;;;5.85;3.30;;;1.40;99.90;;;;;;5075546;28;20381;-65
2021/12/23 06:51:45;;;;;;;5.47;2.25;;;1.40;99.90;;;;;;5077517;28;20125;-65
2021/12/23 06:54:14;;;;;;;5.97;2.30;;;1.40;99.90;;;;;;5073390;28;20029;-65
2021/12/23 06:56:40;;;;;;;7.05;3.63;;;1.40;99.90;;;;;;5073859;28;20056;-65
2021/12/23 06:59:06;;;;;;;16.83;4.82;;;1.40;99.90;;;;;;5082980;28;20484;-65
2021/12/23 07:01:32;;;;;;;5.32;2.80;;;1.40;99.90;;;;;;5076326;28;20493;-65
2021/12/23 07:06:26;;;;;;;7.05;2.75;;;1.40;99.90;;;;;;5074782;28;20024;-65
2021/12/23 07:08:54;;;;;;;8.85;4.82;;;1.40;99.90;;;;;;5074896;27;20024;-65
2021/12/23 07:11:20;;;;;;;7.97;2.95;;;1.40;99.90;;;;;;5069145;28;20016;-66
2021/12/23 07:13:45;;;;;;;8.95;4.18;;;1.40;99.90;;;;;;5072041;28;20418;-65
2021/12/23 07:16:12;;;;;;;9.73;5.03;;;1.40;99.90;;;;;;5080079;28;20035;-65
2021/12/23 07:18:38;;;;;;;7.45;3.83;;;1.40;99.90;;;;;;5078124;28;20062;-66
2021/12/23 07:21:03;;;;;;;9.13;4.82;;;1.30;99.90;;;;;;5078467;28;20072;-65
2021/12/23 07:23:29;;;;;;;4.43;3.08;;;1.30;99.90;;;;;;5079181;28;20030;-66
2021/12/23 07:25:55;;;;;;;8.50;3.33;;;1.30;99.90;;;;;;5076550;28;20392;-65
2021/12/23 07:28:20;;;;;;;6.22;3.45;;;1.30;99.90;;;;;;5073987;28;20020;-66
2021/12/23 07:30:47;;;;;;;11.70;5.30;;;1.30;99.90;;;;;;5073733;28;20123;-65
2021/12/23 07:33:13;;;;;;;8.65;3.53;;;1.10;99.90;;;;;;5069850;28;20099;-65
2021/12/23 07:35:39;;;;;;;9.05;3.33;;;1.00;99.90;;;;;;5070279;28;20013;-65
2021/12/23 07:38:05;;;;;;;14.13;5.30;;;1.10;99.90;;;;;;5081276;28;20031;-65
2021/12/23 07:40:31;;;;;;;11.98;4.45;;;1.20;99.90;;;;;;5074485;28;20494;-65
2021/12/23 07:43:08;;;;;;;10.60;3.90;;;1.10;99.90;;;;;;5077056;28;20024;-65
2021/12/23 07:45:34;;;;;;;7.75;3.15;;;1.20;99.90;;;;;;5070181;28;20429;-65
2021/12/23 07:47:59;;;;;;;5.40;3.08;;;1.30;99.90;;;;;;5071472;28;20111;-65
2021/12/23 07:50:25;;;;;;;15.68;4.78;;;1.30;99.90;;;;;;5072729;28;20039;-65
2021/12/23 07:52:51;;;;;;;9.48;4.07;;;1.30;99.90;;;;;;5078937;28;20070;-65
2021/12/23 07:55:17;;;;;;;8.35;3.72;;;1.30;99.90;;;;;;5074822;28;20128;-65
2021/12/23 07:57:43;;;;;;;10.10;4.72;;;1.20;99.90;;;;;;5071926;28;20032;-65
2021/12/23 08:00:10;;;;;;;15.13;4.82;;;1.20;99.90;;;;;;5069050;28;20028;-65
2021/12/23 08:02:35;;;;;;;11.93;4.10;;;1.30;99.90;;;;;;5066440;28;20484;-65
2021/12/23 08:05:01;;;;;;;11.73;5.25;;;1.20;99.90;;;;;;5058636;28;20045;-65
2021/12/23 08:07:27;;;;;;;10.60;3.45;;;1.30;99.90;;;;;;5068429;28;20024;-65
2021/12/23 08:09:52;;;;;;;9.00;4.53;;;1.20;99.90;;;;;;5063403;28;20471;-65
2021/12/23 08:12:18;;;;;;;6.07;3.60;;;1.20;99.90;;;;;;5075259;28;20020;-65
2021/12/23 08:14:43;;;;;;;8.05;2.88;;;1.30;99.90;;;;;;5076613;28;20052;-65
2021/12/23 08:17:09;;;;;;;10.40;5.35;;;1.30;99.90;;;;;;5074897;28;20036;-65
2021/12/23 08:19:35;;;;;;;12.18;5.15;;;1.30;99.90;;;;;;5074202;28;20052;-65
2021/12/23 08:22:00;;;;;;;13.13;3.83;;;1.40;99.90;;;;;;5079231;28;20054;-65
2021/12/23 08:24:26;;;;;;;11.02;4.05;;;1.40;99.90;;;;;;5079737;28;20046;-65
2021/12/23 08:26:53;;;;;;;18.15;3.63;;;1.50;99.90;;;;;;5067927;28;20043;-65
2021/12/23 08:29:20;;;;;;;6.85;3.78;;;1.60;99.90;;;;;;5079273;28;20008;-65
2021/12/23 08:31:52;;;;;;;7.57;3.50;;;1.60;99.90;;;;;;5076254;28;20025;-65
2021/12/23 08:34:22;;;;;;;10.43;3.53;;;1.70;99.90;;;;;;5076264;28;20062;-65
2021/12/23 08:36:47;;;;;;;6.57;3.03;;;1.70;99.90;;;;;;5071292;28;20032;-65
2021/12/23 08:39:14;;;;;;;8.70;3.40;;;1.80;99.90;;;;;;5071172;28;20507;-65
2021/12/23 08:41:40;;;;;;;7.30;3.60;;;1.80;99.90;;;;;;5071309;28;20028;-65
2021/12/23 08:44:05;;;;;;;11.85;3.97;;;1.80;99.90;;;;;;5058944;28;20397;-65
2021/12/23 08:46:31;;;;;;;9.45;3.70;;;1.90;99.90;;;;;;5058385;28;20032;-65
2021/12/23 08:48:57;;;;;;;11.00;4.53;;;1.90;99.90;;;;;;5060126;28;20132;-65
2021/12/23 08:51:23;;;;;;;7.95;3.58;;;1.90;99.90;;;;;;5062258;28;20376;-65
2021/12/23 08:53:48;;;;;;;11.35;4.68;;;1.90;99.90;;;;;;5057586;28;20546;-65
2021/12/23 08:56:14;;;;;;;13.73;5.53;;;1.90;99.90;;;;;;5059625;28;20029;-65
2021/12/23 08:58:40;;;;;;;10.35;4.22;;;2.00;99.90;;;;;;5065029;28;20039;-65
2021/12/23 09:01:06;;;;;;;15.23;7.22;;;2.00;99.90;;;;;;5058556;28;20030;-66
2021/12/23 09:03:33;;;;;;;12.30;3.38;;;2.10;99.90;;;;;;5062814;28;20055;-66
2021/12/23 09:06:00;;;;;;;5.18;2.88;;;2.20;99.90;;;;;;5069457;28;20031;-65
2021/12/23 09:08:26;;;;;;;13.25;4.80;;;2.20;99.90;;;;;;5082903;28;20070;-66
2021/12/23 09:10:53;;;;;;;14.15;3.83;;;2.10;99.90;;;;;;5074690;28;20033;-65
2021/12/23 09:13:19;;;;;;;8.55;4.15;;;2.20;99.90;;;;;;5072616;28;20119;-66
2021/12/23 09:15:45;;;;;;;13.93;5.78;;;2.30;99.90;;;;;;5075931;28;20353;-65
2021/12/23 09:18:11;;;;;;;6.65;3.25;;;2.30;99.90;;;;;;5071477;28;20536;-65
2021/12/23 09:20:37;;;;;;;14.60;5.13;;;2.40;99.90;;;;;;5083543;28;20451;-65
2021/12/23 09:23:03;;;;;;;13.00;3.90;;;2.40;99.90;;;;;;5077487;28;20044;-65
2021/12/23 09:25:33;;;;;;;14.35;5.00;;;2.40;99.90;;;;;;5074047;28;20036;-65
2021/12/23 09:28:41;;;;;;;8.93;4.03;;;2.40;99.90;;;;;;5069812;28;20025;-65
2021/12/23 09:33:36;;;;;;;10.02;4.28;;;2.50;99.90;;;;;;5071785;28;20027;-65
2021/12/23 09:36:03;;;;;;;9.77;3.80;;;2.70;99.90;;;;;;5073494;28;20542;-65
2021/12/23 09:38:28;;;;;;;9.50;3.70;;;2.80;99.90;;;;;;5077486;28;20031;-65
2021/12/23 09:41:01;;;;;;;11.52;3.67;;;2.90;99.90;;;;;;5071532;28;20033;-65
2021/12/23 09:43:29;;;;;;;10.07;4.13;;;3.00;99.90;;;;;;5087102;28;20023;-65
2021/12/23 09:45:55;;;;;;;7.07;2.95;;;3.10;99.90;;;;;;5073691;28;20032;-65
2021/12/23 09:48:22;;;;;;;12.75;3.42;;;3.10;99.90;;;;;;5074944;28;20037;-65
2021/12/23 09:50:49;;;;;;;11.40;3.15;;;3.20;99.90;;;;;;5075841;28;20016;-65
2021/12/23 09:53:18;;;;;;;3.13;1.95;;;3.30;99.90;;;;;;5077353;28;20032;-65
2021/12/23 09:55:44;;;;;;;12.32;4.63;;;3.30;99.90;;;;;;5075203;28;20016;-65
2021/12/23 09:58:10;;;;;;;8.80;4.15;;;3.30;99.90;;;;;;5078166;28;20123;-65
2021/12/23 10:00:45;;;;;;;13.75;4.25;;;3.40;99.90;;;;;;5080397;28;20060;-65
2021/12/23 10:03:11;;;;;;;17.02;5.15;;;3.60;99.90;;;;;;5078773;28;20024;-66
2021/12/23 10:05:37;;;;;;;10.13;4.05;;;3.70;99.90;;;;;;5073482;28;20065;-65
2021/12/23 10:08:05;;;;;;;6.50;2.67;;;3.80;99.90;;;;;;5082530;28;20127;-65
2021/12/23 10:10:56;;;;;;;12.57;2.83;;;3.80;99.90;;;;;;5081761;28;20107;-65
2021/12/23 10:38:10;;;;;;;8.40;2.83;;;3.90;99.90;;;;;;5075776;28;20031;-65
2021/12/23 10:40:38;;;;;;;9.43;3.92;;;3.90;99.90;;;;;;5077994;28;20028;-65
2021/12/23 10:43:03;;;;;;;23.50;6.15;;;4.00;99.90;;;;;;5089952;28;20032;-64
2021/12/23 10:45:52;;;;;;;10.70;4.53;;;3.90;99.90;;;;;;5073242;28;20858;-65
2021/12/23 10:48:17;;;;;;;15.82;4.18;;;4.00;99.90;;;;;;5074191;28;20077;-65
2021/12/23 10:50:50;;;;;;;8.05;2.97;;;4.10;99.90;;;;;;5073528;28;20025;-65
2021/12/23 10:53:39;;;;;;;8.25;2.95;;;4.20;99.90;;;;;;5082007;28;20409;-65
2021/12/23 10:59:09;;;;;;;11.10;4.07;;;4.30;99.90;;;;;;5079217;28;20093;-64
2021/12/23 11:01:38;;;;;;;7.07;3.30;;;4.40;99.90;;;;;;5080639;28;20021;-64
2021/12/23 11:04:06;;;;;;;10.40;2.65;;;4.50;99.90;;;;;;5078668;28;20017;-66
2021/12/23 11:06:57;;;;;;;4.95;2.78;;;4.50;99.90;;;;;;5071699;28;20039;-65
2021/12/23 11:37:07;;;;;;;6.65;3.20;;;5.40;99.90;;;;;;5081135;28;20084;-65
2021/12/23 11:40:07;;;;;;;6.10;2.30;;;5.40;99.90;;;;;;5072822;28;20483;-65
2021/12/23 11:42:50;;;;;;;6.45;3.38;;;5.50;99.90;;;;;;5077088;28;20021;-65
2021/12/23 11:45:15;;;;;;;10.02;3.22;;;5.70;99.90;;;;;;5071179;28;20480;-65
2021/12/23 11:47:41;;;;;;;7.15;2.58;;;5.90;99.90;;;;;;5074729;28;20040;-65
2021/12/23 11:50:18;;;;;;;8.27;2.92;;;6.00;99.90;;;;;;5079532;28;20083;-65
2021/12/23 11:52:44;;;;;;;6.05;2.90;;;6.10;99.90;;;;;;5069905;28;20020;-65
2021/12/23 11:55:09;;;;;;;5.55;2.50;;;6.00;99.90;;;;;;5070653;28;20019;-65
2021/12/23 11:57:38;;;;;;;6.95;3.22;;;6.10;99.90;;;;;;5073800;28;20051;-65
2021/12/23 12:00:29;;;;;;;6.82;2.67;;;6.10;99.90;;;;;;5080586;28;20029;-65
2021/12/23 12:03:00;;;;;;;11.07;3.55;;;6.00;99.90;;;;;;5073443;28;20028;-65
2021/12/23 12:05:26;;;;;;;9.38;3.28;;;6.10;99.90;;;;;;5071691;28;20507;-65
2021/12/23 12:08:08;;;;;;;9.70;3.22;;;6.10;99.90;;;;;;5072458;28;20479;-65
2021/12/23 12:10:36;;;;;;;10.93;4.45;;;6.20;99.90;;;;;;5070981;28;20040;-65
2021/12/23 12:13:14;;;;;;;11.50;3.40;;;6.20;99.90;;;;;;5069966;28;20369;-65
2021/12/23 12:15:39;;;;;;;12.70;5.47;;;6.20;99.90;;;;;;5072652;28;20150;-65
2021/12/23 12:18:13;;;;;;;8.02;3.15;;;6.20;99.90;;;;;;5075854;28;20069;-65
2021/12/23 12:20:58;;;;;;;5.28;2.75;;;6.30;99.90;;;;;;5070433;28;20404;-65
2021/12/23 12:23:30;;;;;;;5.90;3.33;;;6.30;99.90;;;;;;5076999;28;20028;-66
2021/12/23 12:25:58;;;;;;;12.65;3.58;;;6.50;99.90;;;;;;5073069;28;20028;-65
2021/12/23 12:28:24;;;;;;;10.77;3.92;;;6.60;99.90;;;;;;5076044;28;20032;-65
2021/12/23 12:30:58;;;;;;;12.85;3.83;;;6.50;99.90;;;;;;5079260;28;20037;-65
2021/12/23 12:33:23;;;;;;;5.47;3.00;;;6.50;99.90;;;;;;5091876;28;20025;-65
2021/12/23 12:35:58;;;;;;;8.55;3.17;;;6.60;99.90;;;;;;5078054;28;20036;-65
2021/12/23 12:38:26;;;;;;;10.02;3.97;;;6.60;99.90;;;;;;5072540;28;20391;-65
2021/12/23 12:40:54;;;;;;;13.18;4.93;;;6.70;99.90;;;;;;5076715;28;20030;-65
2021/12/23 12:44:13;;;;;;;11.55;3.80;;;6.80;99.90;;;;;;5074005;28;20024;-65
2021/12/23 12:46:43;;;;;;;9.80;3.65;;;6.80;99.90;;;;;;5080964;28;20044;-65
2021/12/23 12:49:40;;;;;;;12.35;4.57;;;6.70;99.90;;;;;;5073439;28;20100;-65
2021/12/23 12:52:11;;;;;;;9.25;3.85;;;6.80;99.90;;;;;;5080543;28;20030;-65
2021/12/23 12:54:46;;;;;;;8.88;2.95;;;6.80;99.90;;;;;;5074575;28;20036;-65
2021/12/23 12:57:12;;;;;;;15.23;3.90;;;6.80;99.90;;;;;;5069065;28;20028;-65
2021/12/23 12:59:41;;;;;;;11.63;4.10;;;6.60;99.90;;;;;;5084673;28;20032;-65
2021/12/23 13:02:27;;;;;;;11.40;3.67;;;6.60;99.90;;;;;;5081958;28;20024;-65
2021/12/23 13:05:11;;;;;;;7.88;3.50;;;6.60;99.90;;;;;;5075059;28;20067;-65
2021/12/23 13:07:41;;;;;;;12.55;4.30;;;6.60;99.90;;;;;;5077030;28;20115;-65
2021/12/23 13:10:20;;;;;;;;;;;6.60;99.90;;;;;;5075248;28;20016;-65
2021/12/23 13:13:01;;;;;;;9.63;2.90;;;6.50;99.90;;;;;;5069815;28;19909;-64
2021/12/23 13:15:36;;;;;;;9.23;3.13;;;6.50;99.90;;;;;;5077217;28;20029;-64
2021/12/23 13:18:05;;;;;;;6.95;3.55;;;6.50;99.90;;;;;;5079274;28;20058;-65
2021/12/23 13:20:35;;;;;;;6.53;1.92;;;6.60;99.90;;;;;;5080581;28;20098;-64
2021/12/23 13:23:13;;;;;;;8.95;3.83;;;6.50;99.90;;;;;;5076932;28;20109;-64
2021/12/23 13:25:55;;;;;;;8.13;2.97;;;6.40;99.90;;;;;;5082896;28;20361;-64
2021/12/23 13:28:25;;;;;;;10.55;3.70;;;6.30;99.90;;;;;;5074488;28;20028;-64
2021/12/23 13:30:50;;;;;;;11.48;3.70;;;6.30;99.90;;;;;;5074045;28;20021;-65
2021/12/23 13:33:16;;;;;;;6.40;2.35;;;6.30;99.90;;;;;;5073812;28;20476;-64
2021/12/23 13:35:42;;;;;;;8.82;2.53;;;6.30;99.90;;;;;;5077101;28;20056;-64
2021/12/23 13:38:09;;;;;;;7.43;2.65;;;6.30;99.90;;;;;;5070841;28;20029;-64
2021/12/23 13:40:39;;;;;;;5.78;2.33;;;6.30;99.90;;;;;;5076475;28;20016;-65
2021/12/23 13:43:05;;;;;;;13.35;3.88;;;6.30;99.90;;;;;;5079567;28;20712;-65
2021/12/23 13:45:31;;;;;;;7.65;3.08;;;6.30;99.90;;;;;;5083977;28;20032;-67
2021/12/23 13:47:58;;;;;;;10.45;3.03;;;6.30;99.90;;;;;;5081954;28;20111;-65
2021/12/23 13:50:27;;;;;;;8.23;2.10;;;6.30;99.90;;;;;;5089361;28;20024;-65
2021/12/23 13:52:53;;;;;;;12.15;3.08;;;6.20;99.90;;;;;;5082933;28;20027;-65
2021/12/23 13:55:20;;;;;;;8.27;3.92;;;6.20;99.90;;;;;;5079607;28;20128;-65
2021/12/23 13:57:52;;;;;;;10.55;2.95;;;6.30;99.90;;;;;;5082190;28;20028;-65
2021/12/23 14:00:28;;;;;;;5.10;2.15;;;6.40;99.90;;;;;;5090768;28;20066;-67
2021/12/23 14:03:12;;;;;;;6.03;2.50;;;6.40;99.90;;;;;;5075892;28;20032;-65
2021/12/23 14:05:40;;;;;;;8.20;3.03;;;6.30;99.90;;;;;;5082993;28;20599;-65